Time;durP1;ratioP1;P1;durP2;ratioP2;P2;SDS_P1;SDS_P2;PMS_P1;PMS_P2;Temp;Humidity;BMP_temperature;BMP_pressure;BME280_temperature;BME280_humidity;BME280_pressure;Samples;Min_cycle;Max_cycle;Signal;HPM_P1;HPM_P2
2023/04/26 17:13:08;;;;;;;5.53;2.17;;;10.30;80.40;;;;;;5087193;27;1244004;-63
2023/04/26 17:15:34;;;;;;;6.13;2.13;;;10.20;83.00;;;;;;5109090;28;20361;-64
2023/04/26 17:18:02;;;;;;;3.78;2.20;;;10.30;85.70;;;;;;5092012;28;20016;-64
2023/04/26 17:20:27;;;;;;;4.85;2.55;;;10.30;87.50;;;;;;5087393;28;20032;-63
2023/04/26 17:22:53;;;;;;;6.43;2.30;;;10.40;87.70;;;;;;5068094;28;20504;-63
2023/04/26 17:25:19;;;;;;;7.10;2.50;;;10.50;88.20;;;;;;5087489;28;20032;-63
2023/04/26 17:27:45;;;;;;;5.57;2.28;;;10.50;88.10;;;;;;5086505;28;20029;-62
2023/04/26 17:30:11;;;;;;;5.03;2.40;;;10.60;88.10;;;;;;5086334;28;20029;-63
2023/04/26 17:32:37;;;;;;;4.90;2.22;;;10.70;87.90;;;;;;5086286;28;20032;-63
2023/04/26 17:35:03;;;;;;;4.63;2.30;;;10.60;86.40;;;;;;5090433;28;20494;-62
2023/04/26 17:37:28;;;;;;;4.72;2.08;;;10.60;86.30;;;;;;5105852;28;20067;-62
2023/04/26 17:39:54;;;;;;;4.45;2.08;;;10.60;85.30;;;;;;5088914;28;20093;-63
2023/04/26 17:42:20;;;;;;;3.35;1.60;;;10.60;83.00;;;;;;5107048;28;20028;-63
2023/04/26 17:44:45;;;;;;;7.15;2.40;;;10.40;81.20;;;;;;5107875;28;20042;-62
2023/04/26 17:47:11;;;;;;;5.65;2.28;;;10.30;80.60;;;;;;5088455;28;20102;-62
2023/04/26 17:49:36;;;;;;;5.75;2.42;;;10.20;81.30;;;;;;5104897;28;20427;-62
2023/04/26 17:52:02;;;;;;;3.67;1.90;;;10.10;82.10;;;;;;5089028;28;20042;-63
2023/04/26 17:54:28;;;;;;;2.35;1.85;;;10.10;82.90;;;;;;5106983;28;20073;-62
2023/04/26 17:56:53;;;;;;;3.53;1.80;;;10.00;83.20;;;;;;5107435;28;20028;-62
2023/04/26 17:59:19;;;;;;;3.50;2.20;;;10.00;82.90;;;;;;5087344;28;20445;-62
2023/04/26 18:01:45;;;;;;;3.95;1.80;;;10.00;82.60;;;;;;5106897;28;20024;-63
2023/04/26 18:04:11;;;;;;;5.68;1.80;;;9.90;83.20;;;;;;5107828;28;20417;-63
2023/04/26 18:06:36;;;;;;;3.47;2.42;;;9.90;83.70;;;;;;5107292;28;20359;-63
2023/04/26 18:09:03;;;;;;;3.65;2.20;;;9.90;83.50;;;;;;5088620;28;20055;-62
2023/04/26 18:11:29;;;;;;;4.80;1.95;;;9.80;83.40;;;;;;5106853;28;20056;-63
2023/04/26 18:13:55;;;;;;;4.00;2.10;;;9.70;84.00;;;;;;5105226;28;20016;-62
2023/04/26 18:16:20;;;;;;;3.60;1.65;;;9.60;83.90;;;;;;5099133;28;20107;-62
2023/04/26 18:18:46;;;;;;;5.57;2.10;;;9.60;84.70;;;;;;5087341;28;20028;-63
2023/04/26 18:21:12;;;;;;;2.88;1.85;;;9.50;84.90;;;;;;5092813;28;20032;-63
2023/04/26 18:23:37;;;;;;;5.40;2.25;;;9.40;85.00;;;;;;5096836;28;20074;-63
2023/04/26 18:26:03;;;;;;;3.17;1.75;;;9.40;85.40;;;;;;5093425;28;20464;-63
2023/04/26 18:28:29;;;;;;;4.00;1.98;;;9.40;85.60;;;;;;5093434;28;20349;-63
2023/04/26 18:30:58;;;;;;;5.05;2.00;;;9.30;85.40;;;;;;5092852;28;20032;-63
2023/04/26 18:33:26;;;;;;;5.93;2.05;;;9.30;85.90;;;;;;5074909;28;20055;-63
2023/04/26 18:35:52;;;;;;;4.28;2.25;;;9.30;86.10;;;;;;5084735;28;20028;-63
2023/04/26 18:38:18;;;;;;;4.72;2.03;;;9.20;86.50;;;;;;5072240;28;20029;-62
2023/04/26 18:40:48;;;;;;;3.25;2.10;;;9.20;86.20;;;;;;5072853;28;20106;-63
2023/04/26 18:43:14;;;;;;;4.50;2.45;;;9.20;86.50;;;;;;5073722;28;20081;-62
2023/04/26 18:45:40;;;;;;;3.50;1.98;;;9.20;86.60;;;;;;5072260;28;20021;-62
2023/04/26 18:48:06;;;;;;;4.35;2.28;;;9.20;86.70;;;;;;5054538;28;20486;-63
2023/04/26 18:50:32;;;;;;;6.68;2.55;;;9.20;87.10;;;;;;5071987;28;20087;-62
2023/04/26 18:52:58;;;;;;;3.95;1.70;;;9.10;87.40;;;;;;5074199;28;20028;-62
2023/04/26 18:55:24;;;;;;;6.20;2.42;;;9.10;87.70;;;;;;5072780;28;20342;-62
2023/04/26 18:57:50;;;;;;;8.60;2.40;;;9.10;88.20;;;;;;5071976;28;20021;-62
2023/04/26 19:00:16;;;;;;;5.45;1.95;;;9.10;88.60;;;;;;5072381;28;20464;-63
2023/04/26 19:02:42;;;;;;;2.95;2.08;;;9.00;88.50;;;;;;5054364;28;20017;-65
2023/04/26 19:05:08;;;;;;;6.45;2.22;;;8.90;89.00;;;;;;5072494;28;20032;-63
2023/04/26 19:07:35;;;;;;;3.25;1.88;;;8.90;89.30;;;;;;5073458;28;20122;-66
2023/04/26 19:10:02;;;;;;;6.07;2.20;;;8.90;89.20;;;;;;5072385;28;20481;-64
2023/04/26 19:12:28;;;;;;;8.15;2.30;;;8.90;89.30;;;;;;5071472;28;20048;-62
2023/04/26 19:14:54;;;;;;;4.95;2.20;;;8.80;89.50;;;;;;5054387;28;20321;-63
2023/04/26 19:17:20;;;;;;;8.75;3.53;;;8.70;89.90;;;;;;5088175;28;20028;-63
2023/04/26 19:19:46;;;;;;;5.97;2.88;;;8.70;90.20;;;;;;5091907;28;20017;-63
2023/04/26 19:22:12;;;;;;;6.15;2.78;;;8.70;90.60;;;;;;5092034;28;20024;-63
2023/04/26 19:24:37;;;;;;;4.70;2.35;;;8.60;91.00;;;;;;5092099;28;20095;-63
2023/04/26 19:27:03;;;;;;;3.58;2.10;;;8.50;91.30;;;;;;5091620;28;20107;-62
2023/04/26 19:29:29;;;;;;;4.00;2.50;;;8.40;91.50;;;;;;5073854;28;20020;-63
2023/04/26 19:31:54;;;;;;;3.88;2.50;;;8.40;91.80;;;;;;5090107;28;20060;-62
2023/04/26 19:34:21;;;;;;;5.72;2.10;;;8.30;92.00;;;;;;5072905;28;20360;-62
2023/04/26 19:36:46;;;;;;;8.35;2.40;;;8.30;92.20;;;;;;5072494;28;20031;-62
2023/04/26 19:39:14;;;;;;;4.10;2.40;;;8.30;92.50;;;;;;5078106;28;20101;-64
2023/04/26 19:41:40;;;;;;;3.75;2.40;;;8.20;92.60;;;;;;5084995;28;20044;-61
2023/04/26 19:44:05;;;;;;;5.43;2.45;;;8.20;92.90;;;;;;5090428;28;20063;-61
2023/04/26 19:46:31;;;;;;;7.03;2.92;;;8.10;93.10;;;;;;5081203;28;20031;-63
2023/04/26 19:48:57;;;;;;;4.60;2.50;;;8.10;93.40;;;;;;5074274;28;20364;-62
2023/04/26 19:51:22;;;;;;;4.35;2.08;;;8.00;93.60;;;;;;5078636;28;20064;-62
2023/04/26 19:53:48;;;;;;;8.68;3.58;;;7.90;93.80;;;;;;5072149;28;20029;-62
2023/04/26 19:56:13;;;;;;;8.30;2.80;;;7.90;94.10;;;;;;5075984;28;20066;-64
2023/04/26 19:58:39;;;;;;;6.97;3.05;;;7.90;94.30;;;;;;5069242;28;20051;-63
2023/04/26 20:01:05;;;;;;;10.82;4.95;;;7.80;94.60;;;;;;5091067;28;20074;-62
2023/04/26 20:03:31;;;;;;;8.15;4.18;;;7.80;95.20;;;;;;5085480;28;20026;-62
2023/04/26 20:05:57;;;;;;;6.82;3.45;;;7.70;95.70;;;;;;5092363;28;20028;-62
2023/04/26 20:08:23;;;;;;;6.05;2.42;;;7.70;96.40;;;;;;5083270;28;20029;-63
2023/04/26 20:10:49;;;;;;;10.07;3.03;;;7.60;97.00;;;;;;5066593;28;20403;-62
2023/04/26 20:13:14;;;;;;;4.93;3.25;;;7.50;97.90;;;;;;5090622;28;20048;-62
2023/04/26 20:15:40;;;;;;;5.57;3.03;;;7.50;98.50;;;;;;5089917;28;20050;-64
2023/04/26 20:18:06;;;;;;;6.88;2.92;;;7.50;99.10;;;;;;5077935;28;20040;-62
2023/04/26 20:20:31;;;;;;;5.18;2.95;;;7.40;98.60;;;;;;5078618;28;20025;-61
2023/04/26 20:22:57;;;;;;;6.97;2.78;;;7.30;98.60;;;;;;5071504;28;20108;-63
2023/04/26 20:25:23;;;;;;;6.13;2.97;;;7.10;98.70;;;;;;5080319;28;20051;-62
2023/04/26 20:27:49;;;;;;;6.25;3.03;;;7.00;99.20;;;;;;5092626;28;20031;-62
2023/04/26 20:30:15;;;;;;;5.53;3.42;;;6.90;99.70;;;;;;5082650;28;20059;-64
2023/04/26 20:32:41;;;;;;;7.18;3.00;;;6.80;99.90;;;;;;5082266;28;20476;-62
2023/04/26 20:35:07;;;;;;;5.70;2.70;;;6.80;99.90;;;;;;5091690;28;20069;-62
2023/04/26 20:37:33;;;;;;;6.53;3.17;;;6.70;99.90;;;;;;5056761;28;20027;-63
2023/04/26 20:39:59;;;;;;;5.45;3.00;;;6.70;99.90;;;;;;5072086;28;20046;-62
2023/04/26 20:42:26;;;;;;;9.77;2.85;;;6.60;99.90;;;;;;5081437;28;20039;-61
2023/04/26 20:44:52;;;;;;;5.10;2.60;;;6.60;99.90;;;;;;5091515;28;20152;-60
2023/04/26 20:47:18;;;;;;;3.90;2.42;;;6.60;99.90;;;;;;5091043;28;20468;-61
2023/04/26 20:49:43;;;;;;;5.13;3.13;;;6.60;99.90;;;;;;5073572;28;20063;-60
2023/04/26 20:52:09;;;;;;;5.25;3.00;;;6.50;99.90;;;;;;5091197;28;20032;-60
2023/04/26 20:54:34;;;;;;;5.45;2.60;;;6.50;99.90;;;;;;5091818;28;20554;-63
2023/04/26 20:57:02;;;;;;;5.85;2.55;;;6.40;99.90;;;;;;5091655;28;20051;-62
2023/04/26 20:59:28;;;;;;;4.30;2.58;;;6.30;99.90;;;;;;5092201;28;20467;-62
